sensor_id;sensor_type;location;lat;lon;timestamp;P1;durP1;ratioP1;P2;durP2;ratioP2
49175;SDS011;35012;47.200;9.748;2023-05-17T00:00:33;7.97;;;5.20;;
49175;SDS011;35012;47.200;9.748;2023-05-17T00:02:58;11.70;;;4.63;;
49175;SDS011;35012;47.200;9.748;2023-05-17T00:05:24;5.50;;;4.60;;
49175;SDS011;35012;47.200;9.748;2023-05-17T00:07:49;10.07;;;5.57;;
49175;SDS011;35012;47.200;9.748;2023-05-17T00:10:15;5.60;;;4.57;;
49175;SDS011;35012;47.200;9.748;2023-05-17T00:12:41;13.33;;;4.80;;
49175;SDS011;35012;47.200;9.748;2023-05-17T00:15:07;9.47;;;4.47;;
49175;SDS011;35012;47.200;9.748;2023-05-17T00:17:33;6.13;;;4.87;;
49175;SDS011;35012;47.200;9.748;2023-05-17T00:20:01;10.30;;;5.17;;
49175;SDS011;35012;47.200;9.748;2023-05-17T00:22:26;6.47;;;5.33;;
49175;SDS011;35012;47.200;9.748;2023-05-17T00:24:52;6.17;;;4.70;;
49175;SDS011;35012;47.200;9.748;2023-05-17T00:27:18;6.57;;;4.30;;
49175;SDS011;35012;47.200;9.748;2023-05-17T00:29:43;6.97;;;4.40;;
49175;SDS011;35012;47.200;9.748;2023-05-17T00:32:09;5.87;;;4.40;;
49175;SDS011;35012;47.200;9.748;2023-05-17T00:34:35;8.57;;;4.90;;
49175;SDS011;35012;47.200;9.748;2023-05-17T00:37:00;7.03;;;4.87;;
49175;SDS011;35012;47.200;9.748;2023-05-17T00:39:26;7.87;;;4.97;;
49175;SDS011;35012;47.200;9.748;2023-05-17T00:41:51;7.97;;;5.30;;
49175;SDS011;35012;47.200;9.748;2023-05-17T00:44:17;5.80;;;5.20;;
49175;SDS011;35012;47.200;9.748;2023-05-17T00:46:42;7.50;;;5.10;;
49175;SDS011;35012;47.200;9.748;2023-05-17T00:49:08;6.53;;;4.73;;
49175;SDS011;35012;47.200;9.748;2023-05-17T00:51:34;5.63;;;4.43;;
49175;SDS011;35012;47.200;9.748;2023-05-17T00:54:00;8.00;;;4.73;;
49175;SDS011;35012;47.200;9.748;2023-05-17T00:56:25;6.40;;;4.87;;
49175;SDS011;35012;47.200;9.748;2023-05-17T00:58:51;8.30;;;5.20;;
49175;SDS011;35012;47.200;9.748;2023-05-17T01:01:18;7.53;;;4.60;;
49175;SDS011;35012;47.200;9.748;2023-05-17T01:03:44;9.87;;;5.00;;
49175;SDS011;35012;47.200;9.748;2023-05-17T01:06:10;8.20;;;5.37;;
49175;SDS011;35012;47.200;9.748;2023-05-17T01:08:35;5.63;;;4.27;;
49175;SDS011;35012;47.200;9.748;2023-05-17T01:15:57;7.30;;;4.70;;
49175;SDS011;35012;47.200;9.748;2023-05-17T01:18:32;8.33;;;4.50;;
49175;SDS011;35012;47.200;9.748;2023-05-17T01:21:00;5.10;;;4.47;;
49175;SDS011;35012;47.200;9.748;2023-05-17T01:23:30;7.27;;;4.73;;
49175;SDS011;35012;47.200;9.748;2023-05-17T01:29:04;7.73;;;5.43;;
49175;SDS011;35012;47.200;9.748;2023-05-17T01:31:32;9.03;;;4.83;;
49175;SDS011;35012;47.200;9.748;2023-05-17T01:33:58;7.07;;;4.47;;
49175;SDS011;35012;47.200;9.748;2023-05-17T01:36:25;7.83;;;5.30;;
49175;SDS011;35012;47.200;9.748;2023-05-17T01:38:51;10.20;;;4.87;;
49175;SDS011;35012;47.200;9.748;2023-05-17T01:41:20;7.00;;;4.90;;
49175;SDS011;35012;47.200;9.748;2023-05-17T01:51:41;7.57;;;4.63;;
49175;SDS011;35012;47.200;9.748;2023-05-17T01:54:13;7.30;;;4.63;;
49175;SDS011;35012;47.200;9.748;2023-05-17T01:56:42;8.37;;;4.90;;
49175;SDS011;35012;47.200;9.748;2023-05-17T01:59:09;9.83;;;4.73;;
49175;SDS011;35012;47.200;9.748;2023-05-17T02:01:35;9.10;;;4.80;;
49175;SDS011;35012;47.200;9.748;2023-05-17T02:04:01;7.27;;;4.57;;
49175;SDS011;35012;47.200;9.748;2023-05-17T02:06:26;4.83;;;4.30;;
49175;SDS011;35012;47.200;9.748;2023-05-17T02:08:52;10.23;;;4.63;;
49175;SDS011;35012;47.200;9.748;2023-05-17T02:11:18;8.53;;;4.87;;
49175;SDS011;35012;47.200;9.748;2023-05-17T02:13:43;5.77;;;4.37;;
49175;SDS011;35012;47.200;9.748;2023-05-17T02:16:09;7.27;;;4.30;;
49175;SDS011;35012;47.200;9.748;2023-05-17T02:18:35;5.90;;;3.90;;
49175;SDS011;35012;47.200;9.748;2023-05-17T02:21:01;7.67;;;4.90;;
49175;SDS011;35012;47.200;9.748;2023-05-17T02:23:28;5.37;;;4.27;;
49175;SDS011;35012;47.200;9.748;2023-05-17T02:25:53;8.50;;;4.27;;
49175;SDS011;35012;47.200;9.748;2023-05-17T02:28:19;5.77;;;4.53;;
49175;SDS011;35012;47.200;9.748;2023-05-17T02:30:44;5.27;;;4.20;;
49175;SDS011;35012;47.200;9.748;2023-05-17T02:33:10;7.60;;;4.23;;
49175;SDS011;35012;47.200;9.748;2023-05-17T02:35:36;7.03;;;3.90;;
49175;SDS011;35012;47.200;9.748;2023-05-17T02:38:01;5.77;;;3.93;;
49175;SDS011;35012;47.200;9.748;2023-05-17T02:40:27;5.00;;;3.47;;
49175;SDS011;35012;47.200;9.748;2023-05-17T02:42:53;6.33;;;3.27;;
49175;SDS011;35012;47.200;9.748;2023-05-17T02:45:18;6.33;;;3.70;;
49175;SDS011;35012;47.200;9.748;2023-05-17T02:47:44;6.53;;;3.10;;
49175;SDS011;35012;47.200;9.748;2023-05-17T02:50:09;7.20;;;3.07;;
49175;SDS011;35012;47.200;9.748;2023-05-17T02:52:35;5.37;;;3.60;;
49175;SDS011;35012;47.200;9.748;2023-05-17T02:55:01;11.30;;;5.70;;
49175;SDS011;35012;47.200;9.748;2023-05-17T02:57:26;6.83;;;4.13;;
49175;SDS011;35012;47.200;9.748;2023-05-17T02:59:52;3.93;;;3.40;;
49175;SDS011;35012;47.200;9.748;2023-05-17T03:02:18;6.43;;;3.50;;
49175;SDS011;35012;47.200;9.748;2023-05-17T03:04:43;4.93;;;3.17;;
49175;SDS011;35012;47.200;9.748;2023-05-17T03:07:09;5.70;;;3.50;;
49175;SDS011;35012;47.200;9.748;2023-05-17T03:09:34;5.13;;;3.40;;
49175;SDS011;35012;47.200;9.748;2023-05-17T03:12:01;7.53;;;3.53;;
49175;SDS011;35012;47.200;9.748;2023-05-17T03:14:27;7.47;;;3.40;;
49175;SDS011;35012;47.200;9.748;2023-05-17T03:16:53;8.13;;;3.63;;
49175;SDS011;35012;47.200;9.748;2023-05-17T03:19:18;6.03;;;3.30;;
49175;SDS011;35012;47.200;9.748;2023-05-17T03:21:44;6.93;;;3.63;;
49175;SDS011;35012;47.200;9.748;2023-05-17T03:24:09;5.53;;;3.90;;
49175;SDS011;35012;47.200;9.748;2023-05-17T03:26:35;5.03;;;3.30;;
49175;SDS011;35012;47.200;9.748;2023-05-17T03:29:01;3.60;;;3.30;;
49175;SDS011;35012;47.200;9.748;2023-05-17T03:31:26;4.53;;;3.30;;
49175;SDS011;35012;47.200;9.748;2023-05-17T03:33:52;3.90;;;3.20;;
49175;SDS011;35012;47.200;9.748;2023-05-17T03:36:18;4.60;;;3.40;;
49175;SDS011;35012;47.200;9.748;2023-05-17T03:38:43;6.60;;;3.37;;
49175;SDS011;35012;47.200;9.748;2023-05-17T03:41:09;4.70;;;3.40;;
49175;SDS011;35012;47.200;9.748;2023-05-17T03:43:35;3.70;;;3.23;;
49175;SDS011;35012;47.200;9.748;2023-05-17T03:46:00;4.17;;;3.63;;
49175;SDS011;35012;47.200;9.748;2023-05-17T03:48:26;5.53;;;3.67;;
49175;SDS011;35012;47.200;9.748;2023-05-17T03:50:51;5.03;;;3.63;;
49175;SDS011;35012;47.200;9.748;2023-05-17T03:53:17;5.03;;;4.07;;
49175;SDS011;35012;47.200;9.748;2023-05-17T03:55:42;5.43;;;3.77;;
49175;SDS011;35012;47.200;9.748;2023-05-17T03:58:08;3.90;;;3.33;;
49175;SDS011;35012;47.200;9.748;2023-05-17T04:00:33;4.23;;;3.23;;
49175;SDS011;35012;47.200;9.748;2023-05-17T04:02:59;5.60;;;3.20;;
49175;SDS011;35012;47.200;9.748;2023-05-17T04:05:24;3.27;;;2.97;;
49175;SDS011;35012;47.200;9.748;2023-05-17T04:07:50;6.33;;;3.83;;
49175;SDS011;35012;47.200;9.748;2023-05-17T04:10:16;5.67;;;4.20;;
49175;SDS011;35012;47.200;9.748;2023-05-17T04:12:42;5.73;;;3.93;;
49175;SDS011;35012;47.200;9.748;2023-05-17T04:15:07;5.60;;;4.30;;
49175;SDS011;35012;47.200;9.748;2023-05-17T04:17:33;4.93;;;4.07;;
49175;SDS011;35012;47.200;9.748;2023-05-17T04:19:59;8.10;;;5.07;;
49175;SDS011;35012;47.200;9.748;2023-05-17T04:22:24;6.63;;;4.90;;
49175;SDS011;35012;47.200;9.748;2023-05-17T04:24:50;5.20;;;4.70;;
49175;SDS011;35012;47.200;9.748;2023-05-17T04:27:15;5.20;;;3.70;;
49175;SDS011;35012;47.200;9.748;2023-05-17T04:29:41;6.03;;;3.33;;
49175;SDS011;35012;47.200;9.748;2023-05-17T04:32:06;5.97;;;4.23;;
49175;SDS011;35012;47.200;9.748;2023-05-17T04:34:32;5.03;;;3.80;;
49175;SDS011;35012;47.200;9.748;2023-05-17T04:36:58;5.67;;;3.83;;
49175;SDS011;35012;47.200;9.748;2023-05-17T04:39:23;7.70;;;3.63;;
49175;SDS011;35012;47.200;9.748;2023-05-17T04:41:49;4.93;;;3.33;;
49175;SDS011;35012;47.200;9.748;2023-05-17T04:44:14;4.63;;;3.03;;
49175;SDS011;35012;47.200;9.748;2023-05-17T04:46:41;4.37;;;3.00;;
49175;SDS011;35012;47.200;9.748;2023-05-17T04:49:08;4.70;;;3.37;;
49175;SDS011;35012;47.200;9.748;2023-05-17T04:51:34;3.53;;;2.83;;
49175;SDS011;35012;47.200;9.748;2023-05-17T04:54:00;4.93;;;3.10;;
49175;SDS011;35012;47.200;9.748;2023-05-17T04:56:26;3.93;;;3.10;;
49175;SDS011;35012;47.200;9.748;2023-05-17T04:58:52;4.63;;;3.80;;
49175;SDS011;35012;47.200;9.748;2023-05-17T05:01:18;6.93;;;3.33;;
49175;SDS011;35012;47.200;9.748;2023-05-17T05:03:43;3.83;;;3.20;;
49175;SDS011;35012;47.200;9.748;2023-05-17T05:06:10;4.10;;;3.43;;
49175;SDS011;35012;47.200;9.748;2023-05-17T05:08:36;4.80;;;3.60;;
49175;SDS011;35012;47.200;9.748;2023-05-17T05:11:02;6.93;;;4.33;;
49175;SDS011;35012;47.200;9.748;2023-05-17T05:13:27;5.37;;;4.50;;
49175;SDS011;35012;47.200;9.748;2023-05-17T05:15:53;8.23;;;4.70;;
49175;SDS011;35012;47.200;9.748;2023-05-17T05:18:18;7.93;;;3.70;;
49175;SDS011;35012;47.200;9.748;2023-05-17T05:20:47;9.23;;;3.73;;
49175;SDS011;35012;47.200;9.748;2023-05-17T05:23:13;5.60;;;3.70;;
49175;SDS011;35012;47.200;9.748;2023-05-17T05:25:38;6.37;;;4.67;;
49175;SDS011;35012;47.200;9.748;2023-05-17T05:28:04;7.43;;;5.13;;
49175;SDS011;35012;47.200;9.748;2023-05-17T05:30:30;7.83;;;4.53;;
49175;SDS011;35012;47.200;9.748;2023-05-17T05:32:56;5.77;;;4.13;;
49175;SDS011;35012;47.200;9.748;2023-05-17T05:35:21;4.63;;;3.60;;
49175;SDS011;35012;47.200;9.748;2023-05-17T05:37:54;5.07;;;3.33;;
49175;SDS011;35012;47.200;9.748;2023-05-17T05:40:20;3.70;;;2.77;;
49175;SDS011;35012;47.200;9.748;2023-05-17T05:42:46;6.00;;;3.30;;
49175;SDS011;35012;47.200;9.748;2023-05-17T05:45:11;4.53;;;2.90;;
49175;SDS011;35012;47.200;9.748;2023-05-17T05:47:37;4.70;;;3.00;;
49175;SDS011;35012;47.200;9.748;2023-05-17T05:50:03;6.57;;;3.03;;
49175;SDS011;35012;47.200;9.748;2023-05-17T05:52:29;5.00;;;2.80;;
49175;SDS011;35012;47.200;9.748;2023-05-17T05:54:55;5.97;;;3.47;;
49175;SDS011;35012;47.200;9.748;2023-05-17T05:57:21;4.90;;;3.13;;
49175;SDS011;35012;47.200;9.748;2023-05-17T05:59:46;5.33;;;3.20;;
49175;SDS011;35012;47.200;9.748;2023-05-17T06:02:12;5.73;;;3.23;;
49175;SDS011;35012;47.200;9.748;2023-05-17T06:04:37;5.90;;;3.60;;
49175;SDS011;35012;47.200;9.748;2023-05-17T06:07:03;6.43;;;3.40;;
49175;SDS011;35012;47.200;9.748;2023-05-17T06:09:28;4.10;;;3.03;;
49175;SDS011;35012;47.200;9.748;2023-05-17T06:11:54;4.47;;;3.03;;
49175;SDS011;35012;47.200;9.748;2023-05-17T06:14:19;4.30;;;3.50;;
49175;SDS011;35012;47.200;9.748;2023-05-17T06:16:45;8.80;;;3.80;;
49175;SDS011;35012;47.200;9.748;2023-05-17T06:19:12;5.17;;;3.30;;
49175;SDS011;35012;47.200;9.748;2023-05-17T06:21:38;4.87;;;2.90;;
49175;SDS011;35012;47.200;9.748;2023-05-17T06:24:04;6.03;;;3.30;;
49175;SDS011;35012;47.200;9.748;2023-05-17T06:29:38;5.53;;;2.63;;
49175;SDS011;35012;47.200;9.748;2023-05-17T06:32:04;7.80;;;3.40;;
49175;SDS011;35012;47.200;9.748;2023-05-17T06:34:30;5.13;;;3.20;;
49175;SDS011;35012;47.200;9.748;2023-05-17T06:36:55;5.53;;;3.20;;
49175;SDS011;35012;47.200;9.748;2023-05-17T06:39:20;7.73;;;3.70;;
49175;SDS011;35012;47.200;9.748;2023-05-17T06:41:46;5.50;;;3.20;;
49175;SDS011;35012;47.200;9.748;2023-05-17T06:44:11;8.60;;;4.00;;
49175;SDS011;35012;47.200;9.748;2023-05-17T06:46:37;4.60;;;2.63;;
49175;SDS011;35012;47.200;9.748;2023-05-17T06:49:03;5.20;;;2.83;;
49175;SDS011;35012;47.200;9.748;2023-05-17T06:51:28;4.27;;;2.57;;
49175;SDS011;35012;47.200;9.748;2023-05-17T06:53:53;5.77;;;3.17;;
49175;SDS011;35012;47.200;9.748;2023-05-17T06:56:19;10.43;;;8.70;;
49175;SDS011;35012;47.200;9.748;2023-05-17T06:58:44;5.13;;;3.90;;
49175;SDS011;35012;47.200;9.748;2023-05-17T07:01:11;5.10;;;2.80;;
49175;SDS011;35012;47.200;9.748;2023-05-17T07:03:36;5.53;;;2.50;;
49175;SDS011;35012;47.200;9.748;2023-05-17T07:06:02;6.83;;;2.63;;
49175;SDS011;35012;47.200;9.748;2023-05-17T07:08:28;5.70;;;2.30;;
49175;SDS011;35012;47.200;9.748;2023-05-17T07:10:53;5.93;;;2.63;;
49175;SDS011;35012;47.200;9.748;2023-05-17T07:13:19;4.50;;;2.70;;
49175;SDS011;35012;47.200;9.748;2023-05-17T07:15:44;4.13;;;2.37;;
49175;SDS011;35012;47.200;9.748;2023-05-17T07:18:10;6.83;;;2.60;;
49175;SDS011;35012;47.200;9.748;2023-05-17T07:20:36;7.57;;;2.80;;
49175;SDS011;35012;47.200;9.748;2023-05-17T07:23:01;5.07;;;2.60;;
49175;SDS011;35012;47.200;9.748;2023-05-17T07:25:27;4.57;;;2.37;;
49175;SDS011;35012;47.200;9.748;2023-05-17T07:27:53;4.03;;;2.50;;
49175;SDS011;35012;47.200;9.748;2023-05-17T07:30:18;3.47;;;2.03;;
49175;SDS011;35012;47.200;9.748;2023-05-17T07:32:44;4.13;;;2.00;;
49175;SDS011;35012;47.200;9.748;2023-05-17T07:35:09;5.50;;;2.13;;
49175;SDS011;35012;47.200;9.748;2023-05-17T07:37:35;6.17;;;2.23;;
49175;SDS011;35012;47.200;9.748;2023-05-17T07:40:01;5.50;;;2.13;;
49175;SDS011;35012;47.200;9.748;2023-05-17T07:42:26;4.60;;;2.13;;
49175;SDS011;35012;47.200;9.748;2023-05-17T07:44:52;2.17;;;1.93;;
49175;SDS011;35012;47.200;9.748;2023-05-17T07:47:17;3.53;;;2.03;;
49175;SDS011;35012;47.200;9.748;2023-05-17T07:49:43;2.67;;;1.90;;
49175;SDS011;35012;47.200;9.748;2023-05-17T07:52:08;3.97;;;1.90;;
49175;SDS011;35012;47.200;9.748;2023-05-17T07:54:34;3.90;;;1.73;;
49175;SDS011;35012;47.200;9.748;2023-05-17T07:56:59;3.77;;;2.10;;
49175;SDS011;35012;47.200;9.748;2023-05-17T07:59:25;5.47;;;2.07;;
49175;SDS011;35012;47.200;9.748;2023-05-17T08:01:51;5.27;;;2.00;;
49175;SDS011;35012;47.200;9.748;2023-05-17T08:04:16;3.17;;;2.00;;
49175;SDS011;35012;47.200;9.748;2023-05-17T08:06:43;5.13;;;2.47;;
49175;SDS011;35012;47.200;9.748;2023-05-17T08:09:10;4.77;;;2.07;;
49175;SDS011;35012;47.200;9.748;2023-05-17T08:11:36;3.03;;;1.80;;
49175;SDS011;35012;47.200;9.748;2023-05-17T08:14:05;3.90;;;1.70;;
49175;SDS011;35012;47.200;9.748;2023-05-17T08:16:31;3.67;;;1.80;;
49175;SDS011;35012;47.200;9.748;2023-05-17T08:18:56;2.40;;;1.30;;
49175;SDS011;35012;47.200;9.748;2023-05-17T08:21:22;3.60;;;1.90;;
49175;SDS011;35012;47.200;9.748;2023-05-17T08:23:47;3.63;;;1.47;;
49175;SDS011;35012;47.200;9.748;2023-05-17T08:26:13;4.47;;;1.83;;
49175;SDS011;35012;47.200;9.748;2023-05-17T08:28:39;3.03;;;1.63;;
49175;SDS011;35012;47.200;9.748;2023-05-17T08:31:05;4.47;;;1.70;;
49175;SDS011;35012;47.200;9.748;2023-05-17T08:33:30;4.90;;;2.00;;
49175;SDS011;35012;47.200;9.748;2023-05-17T08:35:57;3.07;;;1.80;;
49175;SDS011;35012;47.200;9.748;2023-05-17T08:38:25;3.57;;;1.60;;
49175;SDS011;35012;47.200;9.748;2023-05-17T08:40:57;5.27;;;1.50;;
49175;SDS011;35012;47.200;9.748;2023-05-17T08:43:23;2.50;;;1.77;;
49175;SDS011;35012;47.200;9.748;2023-05-17T08:45:49;4.97;;;1.60;;
49175;SDS011;35012;47.200;9.748;2023-05-17T08:48:17;3.53;;;1.57;;
49175;SDS011;35012;47.200;9.748;2023-05-17T08:50:43;4.93;;;1.60;;
49175;SDS011;35012;47.200;9.748;2023-05-17T08:53:10;3.77;;;1.60;;
49175;SDS011;35012;47.200;9.748;2023-05-17T08:55:37;4.40;;;1.63;;
49175;SDS011;35012;47.200;9.748;2023-05-17T08:58:04;3.43;;;1.80;;
49175;SDS011;35012;47.200;9.748;2023-05-17T09:00:31;7.00;;;1.60;;
49175;SDS011;35012;47.200;9.748;2023-05-17T09:02:57;3.27;;;1.70;;
49175;SDS011;35012;47.200;9.748;2023-05-17T09:05:24;3.20;;;1.50;;
49175;SDS011;35012;47.200;9.748;2023-05-17T09:07:50;4.70;;;1.47;;
49175;SDS011;35012;47.200;9.748;2023-05-17T09:10:18;3.33;;;1.60;;
49175;SDS011;35012;47.200;9.748;2023-05-17T09:12:43;6.43;;;1.77;;
49175;SDS011;35012;47.200;9.748;2023-05-17T09:15:12;2.47;;;1.50;;
49175;SDS011;35012;47.200;9.748;2023-05-17T09:17:42;3.40;;;2.00;;
49175;SDS011;35012;47.200;9.748;2023-05-17T09:20:09;3.57;;;1.60;;
49175;SDS011;35012;47.200;9.748;2023-05-17T09:22:35;5.57;;;1.40;;
49175;SDS011;35012;47.200;9.748;2023-05-17T09:25:01;5.00;;;2.83;;
49175;SDS011;35012;47.200;9.748;2023-05-17T09:27:29;3.77;;;1.40;;
49175;SDS011;35012;47.200;9.748;2023-05-17T09:29:56;3.33;;;1.60;;
49175;SDS011;35012;47.200;9.748;2023-05-17T09:32:22;3.90;;;1.97;;
49175;SDS011;35012;47.200;9.748;2023-05-17T09:34:49;3.47;;;2.07;;
49175;SDS011;35012;47.200;9.748;2023-05-17T09:37:16;5.70;;;1.63;;
49175;SDS011;35012;47.200;9.748;2023-05-17T09:39:42;6.80;;;1.93;;
49175;SDS011;35012;47.200;9.748;2023-05-17T09:42:09;3.43;;;1.43;;
49175;SDS011;35012;47.200;9.748;2023-05-17T09:44:52;4.17;;;1.50;;
49175;SDS011;35012;47.200;9.748;2023-05-17T09:47:24;2.67;;;1.30;;
49175;SDS011;35012;47.200;9.748;2023-05-17T09:49:52;4.77;;;1.50;;
49175;SDS011;35012;47.200;9.748;2023-05-17T09:52:20;2.07;;;1.20;;
49175;SDS011;35012;47.200;9.748;2023-05-17T09:54:53;2.87;;;1.70;;
49175;SDS011;35012;47.200;9.748;2023-05-17T09:57:19;3.13;;;1.83;;
49175;SDS011;35012;47.200;9.748;2023-05-17T09:59:45;3.03;;;1.50;;
49175;SDS011;35012;47.200;9.748;2023-05-17T10:02:21;3.03;;;1.77;;
49175;SDS011;35012;47.200;9.748;2023-05-17T10:04:48;3.67;;;1.70;;
49175;SDS011;35012;47.200;9.748;2023-05-17T10:07:18;2.73;;;2.00;;
49175;SDS011;35012;47.200;9.748;2023-05-17T10:09:45;4.60;;;1.47;;
49175;SDS011;35012;47.200;9.748;2023-05-17T10:12:13;3.83;;;2.13;;
49175;SDS011;35012;47.200;9.748;2023-05-17T10:14:43;3.27;;;1.53;;
49175;SDS011;35012;47.200;9.748;2023-05-17T10:17:09;3.30;;;1.60;;
49175;SDS011;35012;47.200;9.748;2023-05-17T10:19:35;2.83;;;1.60;;
49175;SDS011;35012;47.200;9.748;2023-05-17T10:22:01;2.60;;;1.83;;
49175;SDS011;35012;47.200;9.748;2023-05-17T10:24:27;2.63;;;1.30;;
49175;SDS011;35012;47.200;9.748;2023-05-17T10:26:55;4.43;;;1.50;;
49175;SDS011;35012;47.200;9.748;2023-05-17T10:29:20;3.47;;;1.40;;
49175;SDS011;35012;47.200;9.748;2023-05-17T10:31:47;2.37;;;1.70;;
49175;SDS011;35012;47.200;9.748;2023-05-17T10:34:19;4.47;;;1.83;;
49175;SDS011;35012;47.200;9.748;2023-05-17T10:36:45;2.70;;;1.40;;
49175;SDS011;35012;47.200;9.748;2023-05-17T10:39:13;3.37;;;1.40;;
49175;SDS011;35012;47.200;9.748;2023-05-17T10:41:39;6.40;;;1.37;;
49175;SDS011;35012;47.200;9.748;2023-05-17T10:44:07;4.03;;;1.50;;
49175;SDS011;35012;47.200;9.748;2023-05-17T10:46:37;4.10;;;1.67;;
49175;SDS011;35012;47.200;9.748;2023-05-17T10:49:03;4.07;;;1.90;;
49175;SDS011;35012;47.200;9.748;2023-05-17T10:51:30;4.33;;;1.53;;
49175;SDS011;35012;47.200;9.748;2023-05-17T10:54:10;4.80;;;1.43;;
49175;SDS011;35012;47.200;9.748;2023-05-17T10:56:39;4.37;;;1.50;;
49175;SDS011;35012;47.200;9.748;2023-05-17T10:59:13;3.20;;;1.43;;
49175;SDS011;35012;47.200;9.748;2023-05-17T11:10:31;4.77;;;1.80;;
49175;SDS011;35012;47.200;9.748;2023-05-17T11:12:36;4.23;;;1.80;;
49175;SDS011;35012;47.200;9.748;2023-05-17T11:15:03;4.33;;;1.53;;
49175;SDS011;35012;47.200;9.748;2023-05-17T11:17:34;4.27;;;1.53;;
49175;SDS011;35012;47.200;9.748;2023-05-17T11:22:40;3.10;;;1.73;;
49175;SDS011;35012;47.200;9.748;2023-05-17T11:25:10;5.03;;;1.63;;
49175;SDS011;35012;47.200;9.748;2023-05-17T11:27:46;4.40;;;1.70;;
49175;SDS011;35012;47.200;9.748;2023-05-17T11:30:16;5.77;;;1.90;;
49175;SDS011;35012;47.200;9.748;2023-05-17T11:33:02;4.33;;;1.40;;
49175;SDS011;35012;47.200;9.748;2023-05-17T11:35:33;5.80;;;1.70;;
49175;SDS011;35012;47.200;9.748;2023-05-17T11:40:54;4.30;;;1.50;;
49175;SDS011;35012;47.200;9.748;2023-05-17T11:43:24;2.87;;;1.33;;
49175;SDS011;35012;47.200;9.748;2023-05-17T11:45:56;3.83;;;1.43;;
49175;SDS011;35012;47.200;9.748;2023-05-17T11:48:25;3.43;;;1.20;;
49175;SDS011;35012;47.200;9.748;2023-05-17T11:50:51;4.50;;;1.70;;
49175;SDS011;35012;47.200;9.748;2023-05-17T11:53:18;3.17;;;1.73;;
49175;SDS011;35012;47.200;9.748;2023-05-17T11:55:45;4.77;;;1.60;;
49175;SDS011;35012;47.200;9.748;2023-05-17T11:58:12;4.60;;;1.80;;
49175;SDS011;35012;47.200;9.748;2023-05-17T12:00:38;3.37;;;1.37;;
49175;SDS011;35012;47.200;9.748;2023-05-17T12:03:39;3.43;;;1.60;;
49175;SDS011;35012;47.200;9.748;2023-05-17T12:08:29;2.67;;;1.37;;
49175;SDS011;35012;47.200;9.748;2023-05-17T12:10:56;3.60;;;1.50;;
49175;SDS011;35012;47.200;9.748;2023-05-17T12:13:22;3.47;;;1.70;;
49175;SDS011;35012;47.200;9.748;2023-05-17T12:15:50;5.23;;;1.50;;
49175;SDS011;35012;47.200;9.748;2023-05-17T12:18:17;3.63;;;1.50;;
49175;SDS011;35012;47.200;9.748;2023-05-17T12:20:57;2.23;;;1.50;;
49175;SDS011;35012;47.200;9.748;2023-05-17T12:23:36;3.73;;;1.70;;
49175;SDS011;35012;47.200;9.748;2023-05-17T12:26:07;4.17;;;1.40;;
49175;SDS011;35012;47.200;9.748;2023-05-17T12:28:34;2.77;;;1.30;;
49175;SDS011;35012;47.200;9.748;2023-05-17T12:31:01;4.03;;;1.50;;
49175;SDS011;35012;47.200;9.748;2023-05-17T12:33:29;2.60;;;1.27;;
49175;SDS011;35012;47.200;9.748;2023-05-17T12:35:56;3.63;;;1.50;;
49175;SDS011;35012;47.200;9.748;2023-05-17T12:38:21;2.00;;;1.17;;
49175;SDS011;35012;47.200;9.748;2023-05-17T12:40:47;2.93;;;1.10;;
49175;SDS011;35012;47.200;9.748;2023-05-17T12:43:13;3.37;;;1.40;;
49175;SDS011;35012;47.200;9.748;2023-05-17T12:45:41;4.00;;;1.20;;
49175;SDS011;35012;47.200;9.748;2023-05-17T12:48:07;1.80;;;1.20;;
49175;SDS011;35012;47.200;9.748;2023-05-17T12:50:32;4.33;;;1.20;;
49175;SDS011;35012;47.200;9.748;2023-05-17T12:52:58;2.47;;;1.00;;
49175;SDS011;35012;47.200;9.748;2023-05-17T12:55:24;3.90;;;1.23;;
49175;SDS011;35012;47.200;9.748;2023-05-17T12:57:52;2.10;;;1.20;;
49175;SDS011;35012;47.200;9.748;2023-05-17T13:00:19;4.43;;;1.33;;
49175;SDS011;35012;47.200;9.748;2023-05-17T13:02:45;1.60;;;1.10;;
49175;SDS011;35012;47.200;9.748;2023-05-17T13:05:16;3.10;;;1.20;;
49175;SDS011;35012;47.200;9.748;2023-05-17T13:07:43;3.03;;;1.10;;
49175;SDS011;35012;47.200;9.748;2023-05-17T13:10:20;2.77;;;1.00;;
49175;SDS011;35012;47.200;9.748;2023-05-17T13:12:53;4.43;;;1.20;;
49175;SDS011;35012;47.200;9.748;2023-05-17T13:15:20;2.90;;;1.40;;
49175;SDS011;35012;47.200;9.748;2023-05-17T13:17:59;2.73;;;1.20;;
49175;SDS011;35012;47.200;9.748;2023-05-17T13:20:25;3.80;;;1.33;;
49175;SDS011;35012;47.200;9.748;2023-05-17T13:22:51;3.23;;;1.57;;
49175;SDS011;35012;47.200;9.748;2023-05-17T13:25:16;4.00;;;1.40;;
49175;SDS011;35012;47.200;9.748;2023-05-17T13:27:43;2.57;;;1.10;;
49175;SDS011;35012;47.200;9.748;2023-05-17T13:30:14;3.33;;;1.20;;
49175;SDS011;35012;47.200;9.748;2023-05-17T13:32:40;3.77;;;1.30;;
49175;SDS011;35012;47.200;9.748;2023-05-17T13:35:06;4.47;;;1.40;;
49175;SDS011;35012;47.200;9.748;2023-05-17T13:37:32;4.57;;;1.50;;
49175;SDS011;35012;47.200;9.748;2023-05-17T13:39:58;1.93;;;1.10;;
49175;SDS011;35012;47.200;9.748;2023-05-17T13:42:24;3.57;;;1.30;;
49175;SDS011;35012;47.200;9.748;2023-05-17T13:44:49;2.20;;;1.30;;
49175;SDS011;35012;47.200;9.748;2023-05-17T13:47:15;2.93;;;1.30;;
49175;SDS011;35012;47.200;9.748;2023-05-17T13:49:41;4.67;;;1.23;;
49175;SDS011;35012;47.200;9.748;2023-05-17T13:52:06;2.23;;;1.20;;
49175;SDS011;35012;47.200;9.748;2023-05-17T13:54:33;4.37;;;1.40;;
49175;SDS011;35012;47.200;9.748;2023-05-17T13:56:58;6.13;;;1.73;;
49175;SDS011;35012;47.200;9.748;2023-05-17T13:59:24;4.10;;;1.60;;
49175;SDS011;35012;47.200;9.748;2023-05-17T14:01:50;5.97;;;2.40;;
49175;SDS011;35012;47.200;9.748;2023-05-17T14:04:16;3.50;;;2.00;;
49175;SDS011;35012;47.200;9.748;2023-05-17T14:06:42;4.53;;;1.50;;
49175;SDS011;35012;47.200;9.748;2023-05-17T14:09:07;4.07;;;1.40;;
49175;SDS011;35012;47.200;9.748;2023-05-17T14:11:34;4.07;;;1.27;;
49175;SDS011;35012;47.200;9.748;2023-05-17T14:14:00;4.53;;;1.70;;
49175;SDS011;35012;47.200;9.748;2023-05-17T14:16:25;2.77;;;1.30;;
49175;SDS011;35012;47.200;9.748;2023-05-17T14:18:51;2.00;;;1.40;;
49175;SDS011;35012;47.200;9.748;2023-05-17T14:21:16;3.20;;;1.20;;
49175;SDS011;35012;47.200;9.748;2023-05-17T14:23:42;2.50;;;1.10;;
49175;SDS011;35012;47.200;9.748;2023-05-17T14:26:07;4.17;;;2.17;;
49175;SDS011;35012;47.200;9.748;2023-05-17T14:28:33;5.07;;;1.70;;
49175;SDS011;35012;47.200;9.748;2023-05-17T14:31:02;4.03;;;1.27;;
49175;SDS011;35012;47.200;9.748;2023-05-17T14:33:28;4.00;;;1.30;;
49175;SDS011;35012;47.200;9.748;2023-05-17T14:35:53;4.30;;;1.30;;
49175;SDS011;35012;47.200;9.748;2023-05-17T14:38:19;2.77;;;1.40;;
49175;SDS011;35012;47.200;9.748;2023-05-17T14:40:47;5.63;;;1.53;;
49175;SDS011;35012;47.200;9.748;2023-05-17T14:43:12;5.33;;;1.70;;
49175;SDS011;35012;47.200;9.748;2023-05-17T14:45:38;2.47;;;1.23;;
49175;SDS011;35012;47.200;9.748;2023-05-17T14:48:03;5.17;;;1.60;;
49175;SDS011;35012;47.200;9.748;2023-05-17T14:50:29;4.37;;;1.40;;
49175;SDS011;35012;47.200;9.748;2023-05-17T14:52:56;3.23;;;1.70;;
49175;SDS011;35012;47.200;9.748;2023-05-17T14:55:22;3.17;;;1.50;;
49175;SDS011;35012;47.200;9.748;2023-05-17T14:57:50;4.17;;;1.50;;
49175;SDS011;35012;47.200;9.748;2023-05-17T15:00:21;5.63;;;2.03;;
49175;SDS011;35012;47.200;9.748;2023-05-17T15:02:47;5.63;;;1.90;;
49175;SDS011;35012;47.200;9.748;2023-05-17T15:05:13;5.73;;;2.10;;
49175;SDS011;35012;47.200;9.748;2023-05-17T15:07:38;2.87;;;1.50;;
49175;SDS011;35012;47.200;9.748;2023-05-17T15:10:04;6.57;;;1.73;;
49175;SDS011;35012;47.200;9.748;2023-05-17T15:12:30;2.53;;;1.47;;
49175;SDS011;35012;47.200;9.748;2023-05-17T15:14:56;2.40;;;1.47;;
49175;SDS011;35012;47.200;9.748;2023-05-17T15:17:22;2.97;;;1.40;;
49175;SDS011;35012;47.200;9.748;2023-05-17T15:19:47;3.43;;;1.40;;